createdAt,value
2018-10-18T09:28:33.099Z,43.70
2018-10-18T09:31:06.619Z,43.98
2018-10-18T09:33:39.943Z,43.83
2018-10-18T09:36:13.392Z,42.73
2018-10-18T09:38:46.799Z,43.87
2018-10-18T09:41:20.373Z,44.40
2018-10-18T09:44:06.205Z,42.33
2018-10-18T09:46:39.647Z,43.92
2018-10-18T09:49:13.124Z,44.33
2018-10-18T09:51:46.561Z,42.80
2018-10-18T09:54:19.986Z,43.95
2018-10-18T09:56:53.423Z,42.93
2018-10-18T09:59:26.986Z,45.28
2018-10-18T10:02:05.709Z,44.45
2018-10-18T10:04:39.125Z,43.45
2018-10-18T10:07:12.796Z,45.60
2018-10-18T10:09:46.190Z,45.05
2018-10-18T10:12:19.691Z,43.73
2018-10-18T10:14:53.143Z,45.95
2018-10-18T10:17:26.567Z,44.95
2018-10-18T10:20:00.020Z,45.10
2018-10-18T10:22:33.436Z,44.40
2018-10-18T10:25:07.059Z,45.23
2018-10-18T10:27:40.476Z,43.50
2018-10-18T10:30:13.978Z,45.05
2018-10-18T10:32:47.420Z,45.05
2018-10-18T10:35:20.857Z,46.42
2018-10-18T10:37:54.287Z,45.33
2018-10-18T10:40:27.720Z,43.75
2018-10-18T10:43:01.213Z,45.33
2018-10-18T10:45:34.630Z,45.80
2018-10-18T10:48:08.173Z,43.87
2018-10-18T10:50:41.543Z,44.45
2018-10-18T10:53:14.975Z,45.03
2018-10-18T10:55:48.408Z,44.75
2018-10-18T10:58:21.859Z,43.98
2018-10-18T11:01:14.547Z,44.58
2018-10-18T11:03:48.571Z,42.38
2018-10-18T11:06:22.120Z,42.80
2018-10-18T11:08:55.583Z,43.65
2018-10-18T11:11:29.038Z,41.73
2018-10-18T11:14:02.520Z,42.45
2018-10-18T11:16:35.973Z,41.80
2018-10-18T11:19:09.388Z,42.33
2018-10-18T11:21:42.973Z,40.55
2018-10-18T11:24:16.383Z,40.58
2018-10-18T11:26:49.847Z,41.58
2018-10-18T11:29:23.427Z,40.48
2018-10-18T11:31:56.918Z,40.25
2018-10-18T11:34:30.557Z,40.55
2018-10-18T11:37:03.960Z,41.23
2018-10-18T11:39:37.392Z,40.63
2018-10-18T11:42:10.897Z,40.92
2018-10-18T11:44:44.222Z,40.83
2018-10-18T11:47:17.647Z,40.50
2018-10-18T11:49:51.075Z,39.90
2018-10-18T11:52:24.504Z,40.17
2018-10-18T11:54:57.899Z,39.13
2018-10-18T11:57:33.402Z,40.78
2018-10-18T12:00:06.903Z,40.08
2018-10-18T12:02:40.393Z,39.88
2018-10-18T12:05:14.237Z,40.10
2018-10-18T12:07:47.652Z,40.15
2018-10-18T12:10:22.321Z,38.63
2018-10-18T12:12:55.752Z,38.65
2018-10-18T12:15:29.148Z,39.95
2018-10-18T12:18:02.626Z,39.63
2018-10-18T12:20:36.054Z,39.18
2018-10-18T12:23:09.520Z,39.10
2018-10-18T12:25:43.109Z,39.30
2018-10-18T12:28:16.515Z,39.40
2018-10-18T12:30:49.914Z,39.10
2018-10-18T12:33:23.404Z,40.48
2018-10-18T12:35:56.804Z,39.90
2018-10-18T12:38:30.245Z,38.53
2018-10-18T12:41:03.817Z,39.45
2018-10-18T12:43:37.093Z,39.53
2018-10-18T12:46:10.504Z,38.80
2018-10-18T12:48:44.077Z,39.90
2018-10-18T12:51:17.494Z,39.35
2018-10-18T12:53:50.931Z,38.48
2018-10-18T12:56:24.356Z,37.53
2018-10-18T12:58:57.785Z,39.55
2018-10-18T13:01:31.263Z,39.60
2018-10-18T13:04:04.744Z,38.80
2018-10-18T13:06:38.172Z,38.40
2018-10-18T13:09:11.821Z,38.67
2018-10-18T13:11:45.244Z,39.55
2018-10-18T13:14:18.756Z,39.15
2018-10-18T13:16:55.235Z,39.95
2018-10-18T13:19:28.757Z,36.38
2018-10-18T13:22:02.195Z,38.23
2018-10-18T13:24:35.646Z,38.83
2018-10-18T13:27:09.097Z,39.92
2018-10-18T13:29:42.540Z,38.75
2018-10-18T13:32:16.088Z,37.33
2018-10-18T13:34:49.509Z,37.95
2018-10-18T13:37:22.951Z,38.60
2018-10-18T13:39:56.401Z,39.50
2018-10-18T13:42:29.953Z,39.25
2018-10-18T13:45:03.795Z,38.25
2018-10-18T13:47:37.383Z,38.92
2018-10-18T13:50:10.928Z,36.83
2018-10-18T13:52:44.391Z,37.25
2018-10-18T13:55:17.795Z,38.35
2018-10-18T13:57:51.327Z,38.67
2018-10-18T14:00:29.932Z,38.58
2018-10-18T14:03:03.401Z,38.30
2018-10-18T14:05:36.875Z,38.53
2018-10-18T14:08:10.458Z,37.73
2018-10-18T14:10:43.858Z,38.92
2018-10-18T14:13:17.723Z,38.30
2018-10-18T14:15:51.181Z,38.80
2018-10-18T14:18:24.705Z,38.33
2018-10-18T14:20:58.248Z,39.03
2018-10-18T14:23:31.811Z,39.10
2018-10-18T14:26:05.374Z,39.15
2018-10-18T14:28:38.797Z,37.73
2018-10-18T14:31:12.227Z,38.85
2018-10-18T14:33:45.720Z,39.85
2018-10-18T14:36:19.139Z,37.95
2018-10-18T14:38:52.646Z,38.50
2018-10-18T14:41:26.001Z,38.40
2018-10-18T14:43:59.548Z,38.17
2018-10-18T14:46:32.935Z,38.60
2018-10-18T14:49:06.603Z,38.28
2018-10-18T14:51:39.998Z,38.90
2018-10-18T14:54:13.440Z,38.88
2018-10-18T14:56:46.943Z,37.90
2018-10-18T14:59:20.481Z,38.80
2018-10-18T15:01:53.933Z,38.20
2018-10-18T15:04:27.417Z,37.40
2018-10-18T15:07:00.802Z,38.83
2018-10-18T15:09:34.319Z,37.45
2018-10-18T15:12:08.485Z,36.35
2018-10-18T15:14:42.076Z,38.35
2018-10-18T15:17:15.567Z,38.33
2018-10-18T15:19:49.075Z,37.75
2018-10-18T15:22:22.500Z,38.63
2018-10-18T15:24:57.064Z,38.28
2018-10-18T15:27:30.564Z,38.60
2018-10-18T15:30:04.447Z,37.55
2018-10-18T15:32:38.394Z,38.75
2018-10-18T15:35:12.440Z,38.63
2018-10-18T15:37:45.865Z,38.30
2018-10-18T15:40:19.271Z,38.73
2018-10-18T15:42:52.820Z,39.33
2018-10-18T15:45:26.268Z,38.55
2018-10-18T15:47:59.694Z,38.38
2018-10-18T15:50:33.149Z,38.02
2018-10-18T15:53:06.597Z,38.60
2018-10-18T15:55:40.166Z,38.30
2018-10-18T15:58:13.902Z,38.02
2018-10-18T16:00:47.348Z,39.35
2018-10-18T16:03:20.804Z,39.67
2018-10-18T16:05:54.311Z,39.30
2018-10-18T16:08:27.779Z,38.33
2018-10-18T16:11:01.320Z,39.63
2018-10-18T16:13:36.019Z,39.85
2018-10-18T16:16:09.534Z,39.25
2018-10-18T16:18:42.977Z,38.95
2018-10-18T16:21:16.432Z,37.65
2018-10-18T16:23:49.883Z,39.38
2018-10-18T16:26:23.366Z,38.83
2018-10-18T16:28:56.934Z,40.12
2018-10-18T16:31:30.431Z,39.35
2018-10-18T16:34:03.888Z,40.60
2018-10-18T16:36:37.365Z,39.48
2018-10-18T16:39:12.548Z,39.05
2018-10-18T16:41:46.053Z,39.58
2018-10-18T16:44:19.562Z,40.95
2018-10-18T16:46:53.016Z,39.35
2018-10-18T16:49:26.428Z,39.23
2018-10-18T16:51:59.853Z,38.15
2018-10-18T16:54:33.299Z,39.70
2018-10-18T16:57:06.808Z,39.13
2018-10-18T16:59:40.203Z,39.42
2018-10-18T17:02:13.871Z,39.27
2018-10-18T17:04:47.256Z,40.45
2018-10-18T17:07:20.719Z,40.23
2018-10-18T17:09:54.145Z,40.00
2018-10-18T17:12:27.562Z,40.88
2018-10-18T17:15:00.975Z,40.10
2018-10-18T17:17:34.735Z,40.58
2018-10-18T17:20:08.818Z,39.85
2018-10-18T17:22:42.060Z,40.33
2018-10-18T17:25:15.486Z,40.58
2018-10-18T17:27:48.892Z,39.55
2018-10-18T17:30:22.291Z,40.10
2018-10-18T17:32:55.759Z,39.53
2018-10-18T17:35:29.272Z,38.88
2018-10-18T17:38:02.745Z,39.83
2018-10-18T17:40:36.123Z,41.30
2018-10-18T17:43:09.546Z,40.85
2018-10-18T17:45:42.947Z,39.78
2018-10-18T17:48:16.385Z,39.65
2018-10-18T17:50:49.814Z,40.52
2018-10-18T17:53:23.183Z,40.52
2018-10-18T17:55:56.632Z,40.80
2018-10-18T17:58:29.990Z,40.50
2018-10-18T18:01:03.393Z,40.80
2018-10-18T18:03:36.779Z,40.52
2018-10-18T18:06:10.388Z,40.52
2018-10-18T18:08:43.620Z,40.63
2018-10-18T18:11:17.025Z,41.95
2018-10-18T18:13:50.404Z,41.28
2018-10-18T18:16:23.802Z,40.88
2018-10-18T18:18:57.183Z,41.65
2018-10-18T18:21:30.576Z,40.92
2018-10-18T18:24:03.967Z,41.58
2018-10-18T18:26:45.264Z,41.73
2018-10-18T18:29:10.832Z,41.37
2018-10-18T18:31:44.239Z,41.70
2018-10-18T18:34:17.789Z,43.42
2018-10-18T18:36:51.315Z,43.02
2018-10-18T18:39:24.736Z,42.90
2018-10-18T18:41:58.144Z,42.03
2018-10-18T18:44:31.599Z,42.17
2018-10-18T18:47:05.075Z,43.95
2018-10-18T18:49:38.506Z,42.53
2018-10-18T18:52:11.913Z,41.53
2018-10-18T18:54:45.336Z,43.45
2018-10-18T18:57:18.796Z,42.05
2018-10-18T18:59:52.195Z,40.50
2018-10-18T19:02:25.606Z,41.88
2018-10-18T19:04:59.011Z,40.83
2018-10-18T19:07:33.203Z,40.90
2018-10-18T19:10:07.307Z,41.05
2018-10-18T19:12:40.718Z,40.20
2018-10-18T19:15:14.263Z,42.00
2018-10-18T19:17:47.684Z,40.50
2018-10-18T19:20:21.089Z,41.48
2018-10-18T19:22:54.668Z,41.75
2018-10-18T19:25:28.028Z,40.43
2018-10-18T19:28:01.532Z,41.53
2018-10-18T19:30:34.981Z,44.13
2018-10-18T19:33:08.484Z,46.65
2018-10-18T19:35:41.983Z,43.75
2018-10-18T19:38:15.422Z,42.00
2018-10-18T19:40:48.826Z,41.77
2018-10-18T19:43:22.339Z,41.10
2018-10-18T19:45:55.803Z,40.98
2018-10-18T19:48:29.180Z,41.70
2018-10-18T19:51:02.587Z,42.00
2018-10-18T19:53:35.982Z,40.33
2018-10-18T19:56:09.440Z,40.98
2018-10-18T19:58:42.872Z,42.60
2018-10-18T20:01:16.218Z,43.60
2018-10-18T20:03:49.688Z,41.55
2018-10-18T20:06:23.196Z,42.33
2018-10-18T20:08:56.684Z,41.75
2018-10-18T20:11:30.181Z,40.95
2018-10-18T20:14:03.782Z,43.00
2018-10-18T20:16:37.185Z,43.65
2018-10-18T20:19:10.601Z,42.62
2018-10-18T20:21:44.060Z,42.85
2018-10-18T20:24:18.057Z,42.45
2018-10-18T20:26:51.533Z,43.75
2018-10-18T20:29:25.028Z,40.48
2018-10-18T20:31:58.497Z,43.13
2018-10-18T20:34:31.929Z,41.23
2018-10-18T20:37:06.056Z,45.67
2018-10-18T20:39:39.507Z,46.02
2018-10-18T20:42:12.928Z,47.20
2018-10-18T20:44:46.374Z,47.15
2018-10-18T20:47:19.930Z,46.00
2018-10-18T20:49:53.399Z,47.65
2018-10-18T20:52:26.973Z,48.15
2018-10-18T20:55:00.646Z,48.17
2018-10-18T20:57:34.428Z,47.67
2018-10-18T21:00:08.667Z,48.23
2018-10-18T21:02:42.105Z,49.50
2018-10-18T21:05:15.530Z,49.00
2018-10-18T21:07:48.942Z,46.92
2018-10-18T21:10:22.355Z,48.75
2018-10-18T21:12:55.792Z,48.23
2018-10-18T21:15:29.206Z,47.90
2018-10-18T21:18:02.662Z,48.00
2018-10-18T21:20:36.086Z,48.92
2018-10-18T21:23:09.540Z,47.98
2018-10-18T21:25:42.950Z,47.98
2018-10-18T21:28:16.381Z,46.48
2018-10-18T21:30:49.799Z,47.33
2018-10-18T21:33:23.236Z,47.90
2018-10-18T21:35:56.648Z,47.08
2018-10-18T21:38:30.088Z,46.90
2018-10-18T21:41:03.548Z,48.42
2018-10-18T21:43:36.950Z,47.15
2018-10-18T21:46:10.366Z,46.68
2018-10-18T21:48:43.999Z,47.65
2018-10-18T21:51:17.587Z,47.15
2018-10-18T21:53:50.872Z,46.55
2018-10-18T21:56:24.349Z,48.42
2018-10-18T21:58:57.785Z,47.90
2018-10-18T22:01:31.201Z,45.78
2018-10-18T22:04:04.687Z,47.83
2018-10-18T22:06:38.079Z,46.77
2018-10-18T22:09:11.561Z,47.08
2018-10-18T22:11:44.963Z,48.20
2018-10-18T22:14:19.491Z,47.88
2018-10-18T22:16:52.918Z,46.60
2018-10-18T22:19:26.314Z,46.92
2018-10-18T22:21:59.720Z,47.58
2018-10-18T22:24:33.140Z,48.38
2018-10-18T22:27:06.611Z,49.18
2018-10-18T22:29:39.988Z,49.90
2018-10-18T22:32:13.396Z,49.00
2018-10-18T22:34:46.822Z,49.23
2018-10-18T22:37:20.269Z,49.05
2018-10-18T22:39:53.658Z,50.20
2018-10-18T22:42:27.076Z,49.90
2018-10-18T22:45:00.470Z,50.83
2018-10-18T22:47:33.927Z,49.65
2018-10-18T22:50:07.396Z,49.55
2018-10-18T22:52:40.815Z,49.55
2018-10-18T22:55:14.216Z,47.98
2018-10-18T22:57:47.634Z,48.98
2018-10-18T23:00:21.046Z,49.35
2018-10-18T23:02:54.509Z,47.88
2018-10-18T23:05:27.888Z,47.83
2018-10-18T23:08:01.316Z,47.60
2018-10-18T23:10:34.731Z,47.75
2018-10-18T23:13:08.443Z,46.02
2018-10-18T23:15:41.843Z,47.38
2018-10-18T23:18:15.259Z,48.17
2018-10-18T23:20:48.667Z,46.68
2018-10-18T23:23:22.090Z,46.98
2018-10-18T23:25:55.502Z,46.08
2018-10-18T23:28:28.935Z,46.95
2018-10-18T23:31:02.342Z,45.92
2018-10-18T23:33:35.783Z,46.55
2018-10-18T23:36:09.199Z,46.37
2018-10-18T23:38:42.652Z,45.28
2018-10-18T23:41:16.099Z,44.77
2018-10-18T23:43:49.488Z,46.95
2018-10-18T23:46:22.920Z,47.00
2018-10-18T23:48:56.371Z,45.75
2018-10-18T23:51:29.779Z,45.12
2018-10-18T23:54:03.230Z,46.77
2018-10-18T23:56:36.648Z,45.28
2018-10-18T23:59:10.145Z,46.48
